createdAt,value
2022-09-15T00:02:08.497Z,82.19
2022-09-15T00:07:07.778Z,82.39
2022-09-15T00:12:08.426Z,82.56
2022-09-15T00:17:07.935Z,82.72
2022-09-15T00:22:06.838Z,82.88
2022-09-15T00:27:06.422Z,83.09
2022-09-15T00:32:08.378Z,83.29
2022-09-15T00:37:08.439Z,83.49
2022-09-15T00:42:08.744Z,83.68
2022-09-15T00:47:20.002Z,83.97
2022-09-15T00:52:27.143Z,84.04
2022-09-15T00:57:38.457Z,84.08
2022-09-15T01:02:40.499Z,84.10
2022-09-15T01:07:44.805Z,84.10
2022-09-15T01:12:45.112Z,84.08
2022-09-15T01:18:01.350Z,84.08
2022-09-15T01:23:36.588Z,84.14
2022-09-15T01:29:12.048Z,84.23
2022-09-15T01:34:19.972Z,84.30
2022-09-15T01:39:26.278Z,84.34
2022-09-15T01:44:30.301Z,84.39
2022-09-15T01:49:36.455Z,84.42
2022-09-15T01:54:41.723Z,84.50
2022-09-15T01:59:40.992Z,84.58
2022-09-15T02:04:48.890Z,84.64
2022-09-15T02:09:57.585Z,84.69
2022-09-15T02:15:08.029Z,84.72
2022-09-15T02:20:18.223Z,84.80
2022-09-15T02:25:23.842Z,84.81
2022-09-15T02:30:25.350Z,84.92
2022-09-15T02:35:26.283Z,85.00
2022-09-15T02:40:26.746Z,85.01
2022-09-15T02:45:27.127Z,85.02
2022-09-15T02:50:27.448Z,85.04
2022-09-15T02:55:27.391Z,85.11
2022-09-15T03:00:26.334Z,85.21
2022-09-15T03:05:28.726Z,85.31
2022-09-15T03:10:29.546Z,85.51
2022-09-15T03:15:29.960Z,85.51
2022-09-15T03:20:30.630Z,85.51
2022-09-15T03:25:29.946Z,85.49
2022-09-15T03:30:29.236Z,85.50
2022-09-15T03:35:28.356Z,85.49
2022-09-15T03:40:27.386Z,85.42
2022-09-15T03:45:27.470Z,85.40
2022-09-15T03:50:27.158Z,85.33
2022-09-15T03:55:26.272Z,85.25
2022-09-15T04:00:26.695Z,85.11
2022-09-15T04:05:26.042Z,84.96
2022-09-15T04:10:25.784Z,84.84
2022-09-15T04:15:25.969Z,84.73
2022-09-15T04:20:25.994Z,84.63
2022-09-15T04:25:25.978Z,84.50
2022-09-15T04:30:25.167Z,84.35
2022-09-15T04:35:25.403Z,84.18
2022-09-15T04:40:24.297Z,84.09
2022-09-15T04:45:23.918Z,83.96
2022-09-15T04:50:22.703Z,83.80
2022-09-15T04:55:22.648Z,83.65
2022-09-15T05:00:23.455Z,83.56
2022-09-15T05:05:23.478Z,83.46
2022-09-15T05:10:23.124Z,83.36
2022-09-15T05:15:24.397Z,83.22
2022-09-15T05:20:24.814Z,82.93
2022-09-15T05:25:25.561Z,82.72
2022-09-15T05:30:44.404Z,82.58
2022-09-15T05:35:53.230Z,82.19
2022-09-15T05:40:53.444Z,81.96
2022-09-15T05:46:00.114Z,81.71
2022-09-15T05:50:59.933Z,81.51
2022-09-15T05:56:02.676Z,81.30
2022-09-15T06:01:11.329Z,81.05
2022-09-15T06:06:12.175Z,80.83
2022-09-15T06:11:15.318Z,80.75
2022-09-15T06:16:19.810Z,80.71
2022-09-15T06:21:23.348Z,80.71
2022-09-15T06:26:23.246Z,80.61
2022-09-15T06:31:25.775Z,80.33
2022-09-15T06:36:27.389Z,79.83
2022-09-15T06:41:35.353Z,79.49
2022-09-15T06:46:46.355Z,79.10
2022-09-15T06:51:46.106Z,78.48
2022-09-15T06:56:46.866Z,77.83
2022-09-15T07:01:46.377Z,77.66
2022-09-15T07:06:45.519Z,77.50
2022-09-15T07:11:45.898Z,77.25
2022-09-15T07:16:45.234Z,76.57
2022-09-15T07:21:44.879Z,75.96
2022-09-15T07:26:44.331Z,75.63
2022-09-15T07:31:43.232Z,74.96
2022-09-15T07:36:42.498Z,74.15
2022-09-15T07:41:41.317Z,73.65
2022-09-15T07:46:40.230Z,72.90
2022-09-15T07:51:39.853Z,72.82
2022-09-15T07:56:39.487Z,72.18
2022-09-15T08:01:38.162Z,71.11
2022-09-15T08:06:37.030Z,70.65
2022-09-15T08:11:36.004Z,69.46
2022-09-15T08:16:35.236Z,69.16
2022-09-15T08:21:34.715Z,67.46
2022-09-15T08:26:36.394Z,66.26
2022-09-15T08:31:36.101Z,66.75
2022-09-15T08:36:35.568Z,65.59
2022-09-15T08:41:39.518Z,64.06
2022-09-15T08:46:44.902Z,64.20
2022-09-15T08:51:50.537Z,62.06
2022-09-15T08:56:50.166Z,60.94
2022-09-15T09:02:05.750Z,60.15
2022-09-15T09:07:21.843Z,59.29
2022-09-15T09:12:42.011Z,57.17
2022-09-15T09:18:13.367Z,57.24
2022-09-15T09:23:16.495Z,56.99
2022-09-15T09:28:40.226Z,55.99
2022-09-15T09:33:51.252Z,55.96
2022-09-15T09:38:52.376Z,54.74
2022-09-15T09:43:53.193Z,54.46
2022-09-15T09:49:00.315Z,53.98
2022-09-15T09:54:07.751Z,52.37
2022-09-15T09:59:18.733Z,52.13
2022-09-15T10:04:24.243Z,52.44
2022-09-15T10:09:24.238Z,53.81
2022-09-15T10:14:30.767Z,53.26
2022-09-15T10:19:33.325Z,52.92
2022-09-15T10:24:44.307Z,51.63
2022-09-15T10:29:44.116Z,51.75
2022-09-15T10:34:48.889Z,50.73
2022-09-15T10:39:56.634Z,51.90
2022-09-15T10:45:12.506Z,52.37
2022-09-15T10:50:23.708Z,52.97
2022-09-15T10:55:52.748Z,53.22
2022-09-15T11:01:12.709Z,53.35
2022-09-15T11:06:25.572Z,52.95
2022-09-15T11:11:36.349Z,52.90
2022-09-15T11:16:59.775Z,53.60
2022-09-15T11:22:05.824Z,54.46
2022-09-15T11:27:15.817Z,53.78
2022-09-15T11:32:22.425Z,52.35
2022-09-15T11:37:28.271Z,52.03
2022-09-15T11:42:34.653Z,52.49
2022-09-15T11:47:41.564Z,52.17
2022-09-15T11:52:59.461Z,51.88
2022-09-15T11:58:17.363Z,51.82
2022-09-15T12:03:30.809Z,52.54
2022-09-15T12:08:38.855Z,51.92
2022-09-15T12:13:41.110Z,51.06
2022-09-15T12:18:49.044Z,50.92
2022-09-15T12:24:08.267Z,49.99
2022-09-15T12:29:33.211Z,50.35
2022-09-15T12:34:40.688Z,52.10
2022-09-15T12:39:46.119Z,53.06
2022-09-15T12:44:52.265Z,53.66
2022-09-15T12:50:05.752Z,53.12
2022-09-15T12:55:09.269Z,52.28
2022-09-15T13:00:42.483Z,52.44
2022-09-15T13:06:20.255Z,53.56
2022-09-15T13:11:27.289Z,54.26
2022-09-15T13:16:35.309Z,53.40
2022-09-15T13:21:39.649Z,52.90
2022-09-15T13:26:39.702Z,52.31
2022-09-15T13:31:56.079Z,51.65
2022-09-15T13:42:59.176Z,52.78
2022-09-15T13:48:27.448Z,53.53
2022-09-15T13:53:43.238Z,53.90
2022-09-15T13:58:56.276Z,54.25
2022-09-15T14:04:04.891Z,54.56
2022-09-15T14:09:11.269Z,54.91
2022-09-15T14:14:23.069Z,53.99
2022-09-15T14:19:35.496Z,53.53
2022-09-15T14:24:41.562Z,52.88
2022-09-15T14:29:45.010Z,52.91
2022-09-15T14:39:56.854Z,54.06
2022-09-15T14:50:20.276Z,55.18
2022-09-15T14:55:25.490Z,55.17
2022-09-15T15:00:34.237Z,55.29
2022-09-15T15:05:43.944Z,55.47
2022-09-15T15:10:45.530Z,54.90
2022-09-15T15:15:46.035Z,54.36
2022-09-15T15:20:53.562Z,54.27
2022-09-15T15:26:16.072Z,54.96
2022-09-15T15:31:22.418Z,55.38
2022-09-15T15:36:26.134Z,55.93
2022-09-15T15:41:29.058Z,56.50
2022-09-15T15:46:54.826Z,56.90
2022-09-15T15:51:55.984Z,57.61
2022-09-15T15:56:57.027Z,58.21
2022-09-15T16:01:59.627Z,58.53
2022-09-15T16:06:59.923Z,58.53
2022-09-15T16:11:58.534Z,58.47
2022-09-15T16:16:58.681Z,58.75
2022-09-15T16:21:57.497Z,59.15
2022-09-15T16:26:57.175Z,59.64
2022-09-15T16:31:56.516Z,59.97
2022-09-15T16:36:55.691Z,60.29
2022-09-15T16:41:54.883Z,60.68
2022-09-15T16:46:54.485Z,60.93
2022-09-15T16:51:53.504Z,61.24
2022-09-15T16:56:52.905Z,61.54
2022-09-15T17:01:52.731Z,61.78
2022-09-15T17:06:52.232Z,62.17
2022-09-15T17:11:51.952Z,62.47
2022-09-15T17:16:53.117Z,62.95
2022-09-15T17:21:53.582Z,63.53
2022-09-15T17:26:52.436Z,63.97
2022-09-15T17:31:51.996Z,64.42
2022-09-15T17:36:53.034Z,64.79
2022-09-15T17:41:52.192Z,65.11
2022-09-15T17:46:51.914Z,65.29
2022-09-15T17:51:51.819Z,65.43
2022-09-15T17:56:50.901Z,65.75
2022-09-15T18:01:53.026Z,66.11
2022-09-15T18:06:54.806Z,66.31
2022-09-15T18:16:58.363Z,66.80
2022-09-15T18:21:58.878Z,67.32
2022-09-15T18:26:58.666Z,67.89
2022-09-15T18:31:59.636Z,68.21
2022-09-15T18:36:59.206Z,68.47
2022-09-15T18:41:58.576Z,68.72
2022-09-15T18:46:57.386Z,68.89
2022-09-15T18:51:56.790Z,69.09
2022-09-15T18:56:56.553Z,69.19
2022-09-15T19:01:58.236Z,69.38
2022-09-15T19:06:59.000Z,69.32
2022-09-15T19:11:57.621Z,69.43
2022-09-15T19:16:58.446Z,69.44
2022-09-15T19:21:58.123Z,69.43
2022-09-15T19:26:56.766Z,69.53
2022-09-15T19:31:55.787Z,69.65
2022-09-15T19:36:54.616Z,69.72
2022-09-15T19:41:54.757Z,69.79
2022-09-15T19:46:54.776Z,69.93
2022-09-15T19:51:55.670Z,70.10
2022-09-15T19:56:55.418Z,70.31
2022-09-15T20:01:54.918Z,70.53
2022-09-15T20:06:55.189Z,70.72
2022-09-15T20:11:57.654Z,70.94
2022-09-15T20:17:00.984Z,71.07
2022-09-15T20:22:02.176Z,71.27
2022-09-15T20:27:02.474Z,71.29
2022-09-15T20:32:02.421Z,71.46
2022-09-15T20:37:03.354Z,71.74
2022-09-15T20:42:04.098Z,72.00
2022-09-15T20:47:05.235Z,72.29
2022-09-15T20:52:05.807Z,72.64
2022-09-15T20:57:06.531Z,72.89
2022-09-15T21:02:06.310Z,73.21
2022-09-15T21:07:06.363Z,73.54
2022-09-15T21:12:07.711Z,73.68
2022-09-15T21:17:07.829Z,73.92
2022-09-15T21:22:07.770Z,74.14
2022-09-15T21:27:25.577Z,74.45
2022-09-15T21:32:27.489Z,74.51
2022-09-15T21:37:29.073Z,74.79
2022-09-15T21:42:31.424Z,74.96
2022-09-15T21:47:32.119Z,75.11
2022-09-15T21:52:32.629Z,75.42
2022-09-15T21:57:32.031Z,75.76
2022-09-15T22:02:32.277Z,75.99
2022-09-15T22:07:32.960Z,76.21
2022-09-15T22:12:32.900Z,76.39
2022-09-15T22:17:32.385Z,76.69
2022-09-15T22:22:34.701Z,77.03
2022-09-15T22:27:34.807Z,77.50
2022-09-15T22:32:34.504Z,77.85
2022-09-15T22:37:35.629Z,78.19
2022-09-15T22:42:36.310Z,78.52
2022-09-15T22:47:38.105Z,78.73
2022-09-15T22:52:37.868Z,79.08
2022-09-15T22:57:39.731Z,79.15
2022-09-15T23:02:40.074Z,79.68
2022-09-15T23:07:39.643Z,79.72
2022-09-15T23:12:38.968Z,80.21
2022-09-15T23:17:39.190Z,80.75
2022-09-15T23:22:39.508Z,81.07
2022-09-15T23:27:38.326Z,81.34
2022-09-15T23:32:38.245Z,81.60
2022-09-15T23:37:37.781Z,81.57
2022-09-15T23:42:37.392Z,81.57
2022-09-15T23:47:36.486Z,81.56
2022-09-15T23:52:36.040Z,81.54
2022-09-15T23:57:35.343Z,81.73
